createdAt,value
2023-03-05T00:01:33.270Z,10.70
2023-03-05T00:04:02.237Z,11.57
2023-03-05T00:06:32.527Z,11.23
2023-03-05T00:09:00.773Z,10.55
2023-03-05T00:11:30.617Z,11.43
2023-03-05T00:13:59.882Z,10.83
2023-03-05T00:16:29.974Z,13.53
2023-03-05T00:18:59.954Z,12.03
2023-03-05T00:21:30.134Z,12.27
2023-03-05T00:24:01.550Z,9.35
2023-03-05T00:26:31.471Z,11.03
2023-03-05T00:29:00.017Z,12.15
2023-03-05T00:31:31.096Z,9.27
2023-03-05T00:36:28.887Z,10.03
2023-03-05T00:38:57.354Z,10.97
2023-03-05T00:41:26.801Z,11.77
2023-03-05T00:43:55.209Z,11.00
2023-03-05T00:46:23.492Z,10.27
2023-03-05T00:48:51.696Z,9.37
2023-03-05T00:51:19.805Z,9.43
2023-03-05T00:53:48.052Z,11.33
2023-03-05T00:56:16.259Z,11.10
2023-03-05T00:58:45.716Z,10.13
2023-03-05T01:01:13.862Z,11.80
2023-03-05T01:03:41.976Z,8.77
2023-03-05T01:06:13.314Z,12.47
2023-03-05T01:08:41.363Z,10.90
2023-03-05T01:11:10.223Z,8.83
2023-03-05T01:13:38.631Z,13.60
2023-03-05T01:16:08.915Z,12.33
2023-03-05T01:18:39.013Z,11.40
2023-03-05T01:21:07.825Z,10.13
2023-03-05T01:23:37.403Z,12.17
2023-03-05T01:26:06.592Z,9.40
2023-03-05T01:28:34.757Z,10.03
2023-03-05T01:31:02.838Z,8.97
2023-03-05T01:33:32.139Z,10.27
2023-03-05T01:36:00.216Z,8.87
2023-03-05T01:38:28.242Z,9.40
2023-03-05T01:40:56.194Z,10.90
2023-03-05T01:43:26.806Z,10.90
2023-03-05T01:46:34.935Z,15.15
2023-03-05T01:49:09.171Z,14.47
2023-03-05T01:51:40.955Z,11.47
2023-03-05T01:54:11.616Z,12.07
2023-03-05T01:56:41.215Z,12.18
2023-03-05T01:59:10.111Z,12.67
2023-03-05T02:01:41.902Z,13.37
2023-03-05T02:04:15.112Z,10.23
2023-03-05T02:06:44.663Z,13.80
2023-03-05T02:09:13.522Z,15.13
2023-03-05T02:11:42.592Z,12.33
2023-03-05T02:14:11.220Z,14.70
2023-03-05T02:16:39.925Z,12.57
2023-03-05T02:19:13.479Z,11.60
2023-03-05T02:21:44.659Z,11.17
2023-03-05T02:24:14.521Z,12.33
2023-03-05T02:26:44.813Z,17.80
2023-03-05T02:29:18.356Z,12.95
2023-03-05T02:31:47.125Z,14.40
2023-03-05T02:34:15.524Z,12.33
2023-03-05T02:36:44.917Z,13.00
2023-03-05T02:39:13.921Z,15.40
2023-03-05T02:41:41.888Z,12.77
2023-03-05T02:44:09.989Z,16.30
2023-03-05T02:46:38.231Z,14.40
2023-03-05T02:49:06.279Z,11.30
2023-03-05T02:51:34.497Z,13.77
2023-03-05T02:54:04.347Z,15.57
2023-03-05T02:56:32.694Z,21.20
2023-03-05T02:59:02.314Z,15.53
2023-03-05T03:01:30.492Z,12.50
2023-03-05T03:03:59.339Z,15.57
2023-03-05T03:06:27.418Z,15.63
2023-03-05T03:08:55.511Z,19.10
2023-03-05T03:11:25.141Z,14.80
2023-03-05T03:13:53.221Z,15.87
2023-03-05T03:16:21.437Z,14.97
2023-03-05T03:18:49.444Z,16.07
2023-03-05T03:21:19.738Z,14.53
2023-03-05T03:23:47.921Z,15.02
2023-03-05T03:26:15.997Z,13.73
2023-03-05T03:28:45.395Z,17.93
2023-03-05T03:31:13.607Z,15.33
2023-03-05T03:33:41.641Z,13.63
2023-03-05T03:36:10.250Z,15.87
2023-03-05T03:38:38.461Z,16.33
2023-03-05T03:41:07.306Z,12.70
2023-03-05T03:43:35.481Z,14.73
2023-03-05T03:46:06.994Z,13.27
2023-03-05T03:48:36.007Z,15.73
2023-03-05T03:51:06.235Z,16.93
2023-03-05T03:53:34.409Z,14.93
2023-03-05T03:56:02.601Z,15.80
2023-03-05T03:58:30.711Z,13.07
2023-03-05T04:00:58.661Z,11.87
2023-03-05T04:03:28.067Z,14.93
2023-03-05T04:05:56.012Z,13.50
2023-03-05T04:08:23.978Z,15.80
2023-03-05T04:10:52.158Z,15.27
2023-03-05T04:13:20.136Z,16.03
2023-03-05T04:15:48.195Z,15.40
2023-03-05T04:18:16.128Z,12.60
2023-03-05T04:20:45.565Z,15.63
2023-03-05T04:23:13.783Z,17.97
2023-03-05T04:25:41.820Z,14.23
2023-03-05T04:28:12.417Z,11.77
2023-03-05T04:30:40.511Z,12.63
2023-03-05T04:33:08.662Z,15.93
2023-03-05T04:35:36.793Z,18.63
2023-03-05T04:38:06.179Z,13.73
2023-03-05T04:40:34.442Z,16.27
2023-03-05T04:43:02.397Z,15.93
2023-03-05T04:45:30.896Z,17.07
2023-03-05T04:47:59.032Z,17.03
2023-03-05T04:50:27.073Z,16.83
2023-03-05T04:52:55.565Z,15.57
2023-03-05T04:55:24.884Z,18.50
2023-03-05T04:57:52.790Z,14.50
2023-03-05T05:00:21.811Z,18.00
2023-03-05T05:02:51.525Z,17.17
2023-03-05T05:05:21.837Z,13.80
2023-03-05T05:07:49.745Z,16.98
2023-03-05T05:10:18.251Z,18.03
2023-03-05T05:12:47.598Z,24.87
2023-03-05T05:15:15.789Z,19.63
2023-03-05T05:17:43.743Z,16.40
2023-03-05T05:20:13.304Z,14.97
2023-03-05T05:22:41.409Z,20.13
2023-03-05T05:25:10.714Z,17.10
2023-03-05T05:27:39.175Z,14.47
2023-03-05T05:30:10.686Z,16.60
2023-03-05T05:32:38.740Z,13.97
2023-03-05T05:35:07.815Z,14.93
2023-03-05T05:37:35.892Z,17.70
2023-03-05T05:40:06.510Z,14.70
2023-03-05T05:42:34.570Z,18.90
2023-03-05T05:45:03.443Z,14.33
2023-03-05T05:47:32.983Z,14.17
2023-03-05T05:50:00.951Z,20.07
2023-03-05T05:52:28.903Z,14.90
2023-03-05T05:54:56.971Z,17.20
2023-03-05T05:57:25.122Z,14.80
2023-03-05T05:59:53.224Z,16.47
2023-03-05T06:02:21.415Z,17.40
2023-03-05T06:04:50.787Z,17.50
2023-03-05T06:07:18.730Z,19.03
2023-03-05T06:09:46.693Z,17.27
2023-03-05T06:12:14.663Z,14.07
2023-03-05T06:14:43.754Z,17.87
2023-03-05T06:17:14.843Z,18.10
2023-03-05T06:19:45.368Z,18.03
2023-03-05T06:22:14.742Z,18.27
2023-03-05T06:24:42.693Z,17.10
2023-03-05T06:27:10.651Z,18.43
2023-03-05T06:29:38.672Z,18.43
2023-03-05T06:32:07.356Z,14.33
2023-03-05T06:34:35.552Z,17.73
2023-03-05T06:37:03.622Z,16.77
2023-03-05T06:39:33.509Z,16.97
2023-03-05T06:42:05.549Z,16.40
2023-03-05T06:44:33.480Z,16.23
2023-03-05T06:47:01.377Z,16.70
2023-03-05T06:49:29.408Z,19.50
2023-03-05T06:51:57.359Z,18.40
2023-03-05T06:54:25.489Z,19.00
2023-03-05T06:56:54.996Z,14.63
2023-03-05T06:59:23.018Z,13.83
2023-03-05T07:01:51.397Z,15.90
2023-03-05T07:04:19.492Z,15.33
2023-03-05T07:06:47.666Z,16.63
2023-03-05T07:09:17.566Z,16.80
2023-03-05T07:11:45.499Z,12.27
2023-03-05T07:14:14.760Z,14.80
2023-03-05T07:16:42.813Z,14.63
2023-03-05T07:19:12.018Z,15.37
2023-03-05T07:21:40.254Z,17.33
2023-03-05T07:24:08.973Z,14.90
2023-03-05T07:26:37.307Z,13.40
2023-03-05T07:29:05.456Z,16.00
2023-03-05T07:31:34.811Z,12.93
2023-03-05T07:34:04.563Z,15.67
2023-03-05T07:36:35.016Z,13.37
2023-03-05T07:39:04.958Z,13.13
2023-03-05T07:41:33.108Z,12.57
2023-03-05T07:44:01.418Z,11.80
2023-03-05T07:46:31.767Z,15.03
2023-03-05T07:49:01.355Z,11.38
2023-03-05T07:51:29.452Z,14.33
2023-03-05T07:53:59.005Z,15.87
2023-03-05T07:56:31.736Z,13.83
2023-03-05T08:03:06.679Z,13.20
2023-03-05T08:05:36.535Z,15.57
2023-03-05T08:08:30.031Z,14.37
2023-03-05T08:10:57.983Z,13.17
2023-03-05T08:13:25.904Z,13.47
2023-03-05T08:15:53.884Z,15.93
2023-03-05T08:18:21.860Z,14.77
2023-03-05T08:20:51.168Z,13.87
2023-03-05T08:23:19.248Z,15.20
2023-03-05T08:25:47.173Z,16.00
2023-03-05T08:28:16.657Z,12.80
2023-03-05T08:30:44.649Z,14.40
2023-03-05T08:33:12.607Z,13.87
2023-03-05T08:35:40.535Z,15.63
2023-03-05T08:38:09.890Z,14.90
2023-03-05T08:40:37.807Z,18.13
2023-03-05T08:43:07.222Z,18.60
2023-03-05T08:45:35.171Z,14.23
2023-03-05T08:48:03.058Z,16.53
2023-03-05T08:50:31.029Z,15.20
2023-03-05T08:53:00.183Z,15.10
2023-03-05T08:55:29.508Z,18.40
2023-03-05T08:57:57.595Z,18.53
2023-03-05T09:00:25.718Z,15.37
2023-03-05T09:02:53.745Z,18.27
2023-03-05T09:05:21.807Z,16.83
2023-03-05T09:07:49.990Z,19.17
2023-03-05T09:10:19.198Z,24.17
2023-03-05T09:12:49.250Z,24.07
2023-03-05T09:15:17.171Z,20.27
2023-03-05T09:17:45.084Z,24.43
2023-03-05T09:20:14.533Z,26.17
2023-03-05T09:22:42.818Z,23.53
2023-03-05T09:25:12.710Z,25.33
2023-03-05T09:27:40.750Z,23.80
2023-03-05T09:30:12.794Z,25.87
2023-03-05T09:32:40.792Z,27.50
2023-03-05T09:35:10.389Z,26.17
2023-03-05T09:37:38.602Z,25.47
2023-03-05T09:40:07.875Z,24.00
2023-03-05T09:43:04.414Z,26.30
2023-03-05T09:45:41.079Z,24.80
2023-03-05T09:48:17.926Z,24.70
2023-03-05T09:50:51.190Z,24.97
2023-03-05T09:53:30.336Z,32.80
2023-03-05T09:56:02.594Z,25.40
2023-03-05T09:58:36.674Z,21.27
2023-03-05T10:01:11.266Z,27.40
2023-03-05T10:03:51.486Z,26.73
2023-03-05T10:06:24.818Z,26.15
2023-03-05T10:08:57.349Z,28.40
2023-03-05T10:11:39.056Z,25.07
2023-03-05T10:14:08.608Z,25.23
2023-03-05T10:17:00.430Z,23.97
2023-03-05T10:20:01.675Z,26.70
2023-03-05T10:22:32.106Z,25.02
2023-03-05T10:25:18.228Z,26.50
2023-03-05T10:27:52.575Z,27.10
2023-03-05T10:30:35.336Z,31.27
2023-03-05T10:33:16.375Z,25.40
2023-03-05T10:36:00.274Z,30.38
2023-03-05T10:39:08.157Z,29.27
2023-03-05T10:41:45.265Z,27.73
2023-03-05T10:44:18.609Z,29.73
2023-03-05T10:46:48.907Z,30.77
2023-03-05T10:49:21.407Z,30.33
2023-03-05T10:51:53.221Z,27.33
2023-03-05T10:54:26.480Z,30.40
2023-03-05T10:57:04.848Z,31.27
2023-03-05T10:59:33.668Z,30.07
2023-03-05T11:02:08.751Z,29.23
2023-03-05T11:04:40.628Z,30.73
2023-03-05T11:07:36.949Z,31.17
2023-03-05T11:10:55.701Z,30.67
2023-03-05T11:13:27.212Z,32.23
2023-03-05T11:16:01.341Z,33.93
2023-03-05T11:18:34.375Z,30.97
2023-03-05T11:21:11.870Z,34.47
2023-03-05T11:23:40.152Z,30.63
2023-03-05T11:26:22.892Z,32.00
2023-03-05T11:29:00.250Z,34.50
2023-03-05T11:31:30.193Z,32.73
2023-03-05T11:34:01.314Z,34.73
2023-03-05T11:40:21.057Z,37.17
2023-03-05T11:42:56.564Z,34.37
2023-03-05T11:45:26.576Z,32.73
2023-03-05T11:48:21.023Z,30.57
2023-03-05T11:50:54.037Z,37.27
2023-03-05T11:53:28.266Z,36.63
2023-03-05T11:56:04.825Z,36.37
2023-03-05T11:58:40.264Z,36.77
2023-03-05T12:01:15.665Z,31.07
2023-03-05T12:03:44.768Z,34.43
2023-03-05T12:06:19.563Z,29.53
2023-03-05T12:08:53.002Z,29.27
2023-03-05T12:11:28.572Z,27.80
2023-03-05T12:13:59.027Z,26.77
2023-03-05T12:16:32.234Z,29.88
2023-03-05T12:19:16.327Z,26.77
2023-03-05T12:21:50.813Z,27.30
2023-03-05T12:24:39.932Z,26.13
2023-03-05T12:27:18.030Z,26.33
2023-03-05T12:29:49.120Z,28.63
2023-03-05T12:35:05.025Z,24.97
2023-03-05T12:37:59.369Z,25.47
2023-03-05T12:40:30.319Z,25.87
2023-03-05T12:43:01.513Z,22.40
2023-03-05T12:45:40.970Z,29.00
2023-03-05T12:48:44.976Z,23.40
2023-03-05T12:51:15.249Z,24.57
2023-03-05T12:53:43.208Z,30.50
2023-03-05T12:56:21.792Z,26.30
2023-03-05T12:58:53.445Z,24.17
2023-03-05T13:01:33.069Z,22.83
2023-03-05T13:04:09.685Z,25.50
2023-03-05T13:06:39.652Z,23.80
2023-03-05T13:09:17.830Z,26.07
2023-03-05T13:11:49.594Z,23.53
2023-03-05T13:14:30.296Z,25.37
2023-03-05T13:16:58.636Z,32.50
2023-03-05T13:19:27.169Z,77.57
2023-03-05T13:21:59.593Z,24.70
2023-03-05T13:24:27.883Z,19.77
2023-03-05T13:26:56.324Z,19.40
2023-03-05T13:29:28.459Z,22.53
2023-03-05T13:31:58.171Z,26.47
2023-03-05T13:34:40.933Z,22.87
2023-03-05T13:37:19.055Z,20.03
2023-03-05T13:39:50.650Z,15.93
2023-03-05T13:42:20.826Z,18.33
2023-03-05T13:44:57.048Z,20.17
2023-03-05T13:47:28.525Z,17.83
2023-03-05T13:49:59.983Z,17.47
2023-03-05T13:52:30.878Z,18.30
2023-03-05T13:55:00.866Z,19.92
2023-03-05T13:57:38.399Z,39.53
2023-03-05T14:00:25.827Z,35.87
2023-03-05T14:02:54.199Z,20.20
2023-03-05T14:05:22.938Z,17.33
2023-03-05T14:07:52.680Z,21.17
2023-03-05T14:10:31.426Z,16.13
2023-03-05T14:13:00.849Z,20.80
2023-03-05T14:15:32.534Z,16.60
2023-03-05T14:18:18.233Z,15.83
2023-03-05T14:21:01.873Z,18.50
2023-03-05T14:23:39.939Z,15.10
2023-03-05T14:26:28.817Z,17.03
2023-03-05T14:29:02.161Z,16.23
2023-03-05T14:31:36.220Z,14.33
2023-03-05T14:34:06.071Z,15.97
2023-03-05T14:36:35.155Z,14.23
2023-03-05T14:39:03.240Z,14.33
2023-03-05T14:41:41.904Z,15.23
2023-03-05T14:44:17.154Z,15.23
2023-03-05T14:46:50.108Z,23.93
2023-03-05T14:49:18.328Z,16.63
2023-03-05T14:51:47.726Z,16.53
2023-03-05T14:54:23.900Z,18.17
2023-03-05T14:56:51.974Z,18.33
2023-03-05T14:59:21.271Z,19.53
2023-03-05T15:01:51.413Z,13.40
2023-03-05T15:04:20.196Z,16.20
2023-03-05T15:06:51.250Z,15.73
2023-03-05T15:09:21.174Z,15.05
2023-03-05T15:11:49.945Z,15.60
2023-03-05T15:14:18.202Z,14.83
2023-03-05T15:16:47.761Z,17.97
2023-03-05T15:19:17.147Z,15.07
2023-03-05T15:21:45.303Z,15.57
2023-03-05T15:24:14.834Z,16.70
2023-03-05T15:26:43.038Z,15.37
2023-03-05T15:29:11.141Z,17.10
2023-03-05T15:31:40.571Z,18.23
2023-03-05T15:34:08.835Z,14.63
2023-03-05T15:36:38.302Z,15.47
2023-03-05T15:39:06.277Z,16.30
2023-03-05T15:41:34.277Z,16.10
2023-03-05T15:44:02.443Z,19.57
2023-03-05T15:46:30.477Z,17.27
2023-03-05T15:48:58.604Z,16.40
2023-03-05T15:51:26.808Z,16.37
2023-03-05T15:53:56.332Z,16.27
2023-03-05T15:56:24.493Z,14.17
2023-03-05T15:58:52.599Z,15.23
2023-03-05T16:01:21.060Z,15.80
2023-03-05T16:03:49.267Z,18.07
2023-03-05T16:06:20.576Z,13.47
2023-03-05T16:08:49.524Z,16.20
2023-03-05T16:11:19.639Z,16.73
2023-03-05T16:13:47.887Z,15.80
2023-03-05T16:16:16.123Z,16.63
2023-03-05T16:18:46.259Z,18.37
2023-03-05T16:21:14.988Z,18.70
2023-03-05T16:23:42.960Z,19.53
2023-03-05T16:26:11.146Z,17.00
2023-03-05T16:28:40.633Z,15.33
2023-03-05T16:31:08.659Z,20.53
2023-03-05T16:33:36.773Z,17.17
2023-03-05T16:36:26.210Z,21.50
2023-03-05T16:38:56.071Z,18.73
2023-03-05T16:41:24.717Z,16.80
2023-03-05T16:43:56.380Z,17.97
2023-03-05T16:46:25.633Z,15.13
2023-03-05T16:48:54.290Z,15.23
2023-03-05T16:51:23.412Z,15.97
2023-03-05T16:53:52.083Z,16.97
2023-03-05T16:56:20.567Z,13.50
2023-03-05T16:58:50.533Z,14.77
2023-03-05T17:01:22.202Z,14.33
2023-03-05T17:03:50.499Z,15.97
2023-03-05T17:06:21.252Z,14.13
2023-03-05T17:08:50.211Z,10.65
2023-03-05T17:11:18.714Z,12.10
2023-03-05T17:13:48.884Z,11.67
2023-03-05T17:16:20.381Z,15.18
2023-03-05T17:21:18.368Z,7.47
2023-03-05T17:23:46.536Z,8.30
2023-03-05T17:26:16.468Z,10.57
2023-03-05T17:28:45.285Z,9.17
2023-03-05T17:31:14.559Z,10.43
2023-03-05T17:33:43.454Z,12.40
2023-03-05T17:36:17.170Z,10.13
2023-03-05T17:38:46.366Z,9.57
2023-03-05T17:41:14.961Z,10.20
2023-03-05T17:43:43.260Z,10.10
2023-03-05T17:46:12.033Z,8.30
2023-03-05T17:48:40.422Z,11.47
2023-03-05T17:51:10.098Z,9.50
2023-03-05T17:53:40.362Z,7.63
2023-03-05T17:56:10.126Z,9.98
2023-03-05T17:58:38.759Z,10.47
2023-03-05T18:01:07.505Z,7.37
2023-03-05T18:03:36.258Z,9.43
2023-03-05T18:06:05.040Z,8.97
2023-03-05T18:08:33.202Z,11.60
2023-03-05T18:11:02.487Z,12.70
2023-03-05T18:13:30.422Z,9.73
2023-03-05T18:16:00.008Z,10.37
2023-03-05T18:18:28.424Z,10.50
2023-03-05T18:20:57.091Z,7.23
2023-03-05T18:23:25.097Z,8.03
2023-03-05T18:25:53.422Z,6.70
2023-03-05T18:28:23.073Z,10.93
2023-03-05T18:30:51.096Z,6.93
2023-03-05T18:33:22.342Z,13.63
2023-03-05T18:35:52.417Z,6.03
2023-03-05T18:38:21.567Z,8.98
2023-03-05T18:40:51.361Z,6.83
2023-03-05T18:43:21.181Z,6.30
2023-03-05T18:45:51.724Z,9.53
2023-03-05T18:48:20.229Z,16.85
2023-03-05T18:50:51.138Z,7.80
2023-03-05T18:53:19.849Z,8.32
2023-03-05T18:55:51.365Z,7.83
2023-03-05T18:58:19.989Z,10.07
2023-03-05T19:00:49.929Z,10.17
2023-03-05T19:03:20.122Z,7.77
2023-03-05T19:05:50.348Z,11.23
2023-03-05T19:08:18.761Z,8.93
2023-03-05T19:10:47.107Z,18.07
2023-03-05T19:13:25.795Z,11.10
2023-03-05T19:15:55.275Z,11.50
2023-03-05T19:18:23.713Z,8.77
2023-03-05T19:20:55.807Z,7.23
2023-03-05T19:23:24.091Z,11.13
2023-03-05T19:25:52.271Z,10.50
2023-03-05T19:28:21.293Z,9.53
2023-03-05T19:30:49.921Z,9.63
2023-03-05T19:33:19.415Z,14.27
2023-03-05T19:35:49.956Z,9.10
2023-03-05T19:38:18.027Z,12.63
2023-03-05T19:40:46.091Z,8.90
2023-03-05T19:43:14.147Z,8.67
2023-03-05T19:45:42.082Z,9.13
2023-03-05T19:48:10.047Z,9.77
2023-03-05T19:50:40.841Z,7.80
2023-03-05T19:53:08.842Z,9.10
2023-03-05T19:55:40.385Z,13.30
2023-03-05T19:58:08.415Z,11.63
2023-03-05T20:00:37.960Z,11.43
2023-03-05T20:03:06.078Z,10.40
2023-03-05T20:05:34.077Z,8.00
2023-03-05T20:08:03.510Z,7.47
2023-03-05T20:10:31.490Z,11.60
2023-03-05T20:12:59.580Z,10.47
2023-03-05T20:15:29.344Z,9.30
2023-03-05T20:18:23.032Z,11.13
2023-03-05T20:20:53.332Z,12.93
2023-03-05T20:23:24.523Z,10.32
2023-03-05T20:25:52.738Z,9.57
2023-03-05T20:28:25.895Z,8.37
2023-03-05T20:30:58.133Z,10.27
2023-03-05T20:33:28.371Z,10.63
2023-03-05T20:35:56.648Z,9.38
2023-03-05T20:38:29.465Z,10.20
2023-03-05T20:40:59.453Z,9.67
2023-03-05T20:43:29.519Z,8.70
2023-03-05T20:45:58.091Z,12.13
2023-03-05T20:48:27.694Z,13.30
2023-03-05T20:50:56.549Z,11.33
2023-03-05T20:53:25.833Z,12.97
2023-03-05T20:55:54.578Z,11.57
2023-03-05T20:58:22.700Z,15.83
2023-03-05T21:00:50.716Z,12.10
2023-03-05T21:03:18.660Z,11.20
2023-03-05T21:05:47.717Z,10.03
2023-03-05T21:08:15.782Z,11.03
2023-03-05T21:10:45.125Z,16.97
2023-03-05T21:13:13.091Z,8.90
2023-03-05T21:15:41.669Z,11.03
2023-03-05T21:18:09.736Z,9.13
2023-03-05T21:20:37.830Z,11.33
2023-03-05T21:23:05.964Z,9.80
2023-03-05T21:25:34.237Z,10.43
2023-03-05T21:28:06.067Z,8.90
2023-03-05T21:30:35.943Z,9.90
2023-03-05T21:33:05.859Z,10.03
2023-03-05T21:35:34.442Z,10.37
2023-03-05T21:38:03.679Z,11.70
2023-03-05T21:40:32.546Z,10.97
2023-03-05T21:43:01.070Z,11.37
2023-03-05T21:45:31.603Z,11.40
2023-03-05T21:47:59.961Z,11.02
2023-03-05T21:50:28.020Z,9.43
2023-03-05T21:52:56.344Z,12.07
2023-03-05T21:55:32.309Z,10.03
2023-03-05T21:58:00.516Z,8.87
2023-03-05T22:00:29.866Z,10.43
2023-03-05T22:02:57.785Z,10.30
2023-03-05T22:05:25.725Z,12.80
2023-03-05T22:07:53.629Z,10.00
2023-03-05T22:10:22.191Z,9.57
2023-03-05T22:12:56.762Z,10.20
2023-03-05T22:15:26.707Z,10.17
2023-03-05T22:17:56.075Z,11.40
2023-03-05T22:20:24.089Z,10.67
2023-03-05T22:22:52.172Z,13.93
2023-03-05T22:26:35.012Z,10.70
2023-03-05T22:29:03.312Z,11.43
2023-03-05T22:31:31.528Z,10.27
2023-03-05T22:34:00.853Z,13.60
2023-03-05T22:36:28.793Z,10.83
2023-03-05T22:38:56.777Z,11.00
2023-03-05T22:41:24.742Z,9.63
2023-03-05T22:43:52.804Z,10.50
2023-03-05T22:46:23.197Z,10.20
2023-03-05T22:48:52.238Z,11.55
2023-03-05T22:51:21.866Z,8.07
2023-03-05T22:53:49.789Z,13.90
2023-03-05T22:56:19.518Z,12.37
2023-03-05T22:58:47.830Z,11.23
2023-03-05T23:01:17.835Z,10.70
2023-03-05T23:03:47.096Z,11.70
2023-03-05T23:06:15.221Z,14.70
2023-03-05T23:08:44.527Z,12.30
2023-03-05T23:11:13.894Z,10.90
2023-03-05T23:13:42.359Z,9.70
2023-03-05T23:16:10.555Z,13.90
2023-03-05T23:19:03.171Z,13.20
2023-03-05T23:21:31.259Z,13.23
2023-03-05T23:24:00.529Z,11.80
2023-03-05T23:26:28.602Z,12.87
2023-03-05T23:28:56.546Z,11.83
2023-03-05T23:31:24.507Z,11.37
2023-03-05T23:33:52.487Z,12.57
2023-03-05T23:36:45.310Z,12.40
2023-03-05T23:39:14.703Z,12.90
2023-03-05T23:41:42.696Z,15.17
2023-03-05T23:44:10.653Z,12.93
2023-03-05T23:46:38.648Z,13.43
2023-03-05T23:49:06.664Z,12.17
2023-03-05T23:51:34.636Z,11.37
2023-03-05T23:54:02.602Z,12.73
2023-03-05T23:56:32.477Z,14.80
2023-03-05T23:59:01.556Z,14.60
